Time;durP1;ratioP1;P1;durP2;ratioP2;P2;SDS_P1;SDS_P2;PMS_P1;PMS_P2;Temp;Humidity;BMP_temperature;BMP_pressure;BME280_temperature;BME280_humidity;BME280_pressure;Samples;Min_cycle;Max_cycle;Signal;HPM_P1;HPM_P2
2022/04/11 00:02:11;;;;;;;1.35;0.68;;;;;;;18.62;32.82;101772.94;16141172;19;129552;-45
2022/04/11 00:07:33;;;;;;;1.77;0.80;;;;;;;18.61;32.65;101774.00;16140195;19;129961;-41
2022/04/11 00:13:06;;;;;;;1.33;0.52;;;;;;;18.60;33.05;101775.06;16142400;19;129297;-42
2022/04/11 00:18:29;;;;;;;1.83;0.80;;;;;;;18.60;33.02;101772.31;16141358;19;129792;-40
2022/04/11 00:23:51;;;;;;;0.90;0.57;;;;;;;18.58;33.12;101766.16;16144802;19;129942;-41
2022/04/11 00:29:13;;;;;;;1.83;0.63;;;;;;;18.60;33.02;101758.44;16146104;19;129981;-41
2022/04/11 00:34:35;;;;;;;5.78;0.90;;;;;;;18.58;33.02;101757.84;16139129;19;129471;-41
2022/04/11 00:39:56;;;;;;;2.00;0.57;;;;;;;18.58;32.74;101757.84;16143399;19;129553;-40
2022/04/11 00:45:18;;;;;;;1.33;0.70;;;;;;;18.58;32.88;101755.09;16141343;19;132169;-40
2022/04/11 00:50:40;;;;;;;2.30;0.85;;;;;;;18.56;32.82;101746.13;16140695;19;129160;-40
2022/04/11 00:56:02;;;;;;;2.03;0.73;;;;;;;18.56;32.60;101746.13;16142988;19;129006;-40
2022/04/11 01:01:24;;;;;;;1.38;0.70;;;;;;;18.54;32.64;101734.44;16141887;19;129345;-43
2022/04/11 01:06:46;;;;;;;1.52;0.88;;;;;;;18.53;32.68;101735.50;16137314;19;128893;-40
2022/04/11 01:12:08;;;;;;;1.23;0.57;;;;;;;18.52;32.55;101733.81;16135478;19;129915;-43
2022/04/11 01:17:35;;;;;;;3.35;0.93;;;;;;;18.50;32.80;101727.63;16142014;19;130412;-41
2022/04/11 01:22:57;;;;;;;4.40;0.80;;;;;;;18.50;32.60;101716.53;16138513;19;130455;-41
2022/04/11 01:28:22;;;;;;;4.65;0.90;;;;;;;18.49;32.43;101712.94;16138922;19;131851;-41
2022/04/11 01:33:44;;;;;;;4.20;0.98;;;;;;;18.46;32.38;101708.69;16137581;19;128885;-40
2022/04/11 01:39:05;;;;;;;1.95;0.70;;;;;;;18.45;32.71;101712.56;16135270;19;130614;-42
2022/04/11 01:44:27;;;;;;;3.72;0.55;;;;;;;18.46;32.36;101716.16;16138553;19;128938;-41
2022/04/11 01:49:49;;;;;;;2.00;0.80;;;;;;;18.44;32.72;101710.00;16137518;19;129165;-40
2022/04/11 01:55:11;;;;;;;1.77;0.60;;;;;;;18.43;32.55;101714.69;16135180;19;130410;-40
2022/04/11 02:00:39;;;;;;;1.75;0.70;;;;;;;18.42;32.40;101713.00;16138262;19;130024;-40
2022/04/11 02:06:01;;;;;;;1.98;0.73;;;;;;;18.42;32.37;101713.00;16132593;19;129688;-41
2022/04/11 02:11:23;;;;;;;2.38;0.80;;;;;;;18.40;32.43;101712.38;16137103;19;131160;-40
2022/04/11 02:16:45;;;;;;;0.77;0.50;;;;;;;18.40;32.56;101715.13;16134083;19;130262;-41
2022/04/11 02:22:06;;;;;;;1.98;0.60;;;;;;;18.38;32.83;101708.94;16138194;19;129384;-41
2022/04/11 02:27:28;;;;;;;2.38;0.65;;;;;;;18.38;32.63;101708.94;16135301;19;131472;-40
2022/04/11 02:32:51;;;;;;;2.75;0.60;;;;;;;18.38;32.61;101708.94;16134323;19;129436;-40
2022/04/11 02:38:13;;;;;;;0.90;0.50;;;;;;;18.36;32.75;101713.84;16135346;19;129424;-41
2022/04/11 02:43:35;;;;;;;3.70;0.70;;;;;;;18.35;32.42;101709.38;16145909;19;129396;-41
2022/04/11 02:48:57;;;;;;;2.83;0.60;;;;;;;18.35;32.50;101720.47;16151814;19;130026;-39
2022/04/11 02:54:19;;;;;;;0.82;0.52;;;;;;;18.34;32.41;101709.63;16145813;19;130151;-40
2022/04/11 02:59:40;;;;;;;0.85;0.50;;;;;;;18.32;32.82;101707.09;16147572;19;130261;-39
2022/04/11 03:05:02;;;;;;;1.15;0.45;;;;;;;18.31;32.65;101710.94;16148856;19;129947;-43
2022/04/11 03:10:24;;;;;;;1.05;0.50;;;;;;;18.30;32.56;101715.59;16148020;19;130150;-42
2022/04/11 03:15:46;;;;;;;0.57;0.40;;;;;;;18.30;32.64;101706.47;16139985;19;129452;-42
2022/04/11 03:21:08;;;;;;;0.63;0.40;;;;;;;18.29;32.58;101696.44;16148364;19;130606;-45
2022/04/11 03:26:30;;;;;;;1.67;0.80;;;;;;;18.28;32.63;101697.53;16150176;19;129582;-41
2022/04/11 03:31:52;;;;;;;0.85;0.50;;;;;;;18.27;32.51;101690.28;16147771;19;130232;-40
2022/04/11 03:37:13;;;;;;;1.90;0.63;;;;;;;18.25;32.50;101700.72;16147670;19;130264;-43
2022/04/11 03:42:35;;;;;;;1.77;0.80;;;;;;;18.23;32.61;101686.25;16143235;19;129921;-41
2022/04/11 03:47:57;;;;;;;0.85;0.60;;;;;;;18.22;32.39;101698.41;16142044;19;128949;-41
2022/04/11 03:53:19;;;;;;;1.55;0.60;;;;;;;18.21;32.55;101696.72;16146777;19;129246;-40
2022/04/11 03:58:41;;;;;;;1.00;0.47;;;;;;;18.19;32.75;101696.09;16146685;19;129739;-40
2022/04/11 04:04:03;;;;;;;1.45;0.50;;;;;;;18.19;32.77;101693.34;16145962;19;130378;-41
2022/04/11 04:09:25;;;;;;;0.95;0.50;;;;;;;18.18;32.32;101686.09;16145974;19;130167;-40
2022/04/11 04:14:50;;;;;;;0.93;0.60;;;;;;;18.17;32.79;101682.47;16142472;19;128948;-41
2022/04/11 04:20:11;;;;;;;1.23;0.50;;;;;;;18.16;32.54;101675.22;16142873;19;129362;-41
2022/04/11 04:25:34;;;;;;;0.93;0.50;;;;;;;18.14;32.61;101678.22;16146299;19;129515;-40
2022/04/11 04:30:56;;;;;;;1.42;0.50;;;;;;;18.14;32.64;101671.88;16142707;19;129725;-42
2022/04/11 04:36:18;;;;;;;0.57;0.45;;;;;;;18.13;32.57;101672.94;16139602;19;129945;-40
2022/04/11 04:41:40;;;;;;;0.70;0.50;;;;;;;18.11;32.36;101670.38;16138037;19;130393;-42
2022/04/11 04:47:02;;;;;;;1.15;0.60;;;;;;;18.10;32.81;101674.22;16138573;19;129792;-46
2022/04/11 04:52:24;;;;;;;0.55;0.35;;;;;;;18.09;32.43;101661.44;16139993;19;129418;-41
2022/04/11 04:57:46;;;;;;;1.05;0.65;;;;;;;18.08;32.36;101662.53;16142991;19;130417;-41
2022/04/11 05:03:08;;;;;;;2.85;0.60;;;;;;;18.08;32.38;101668.06;16140229;19;129346;-40
2022/04/11 05:08:30;;;;;;;0.95;0.50;;;;;;;18.07;32.63;101666.38;16141306;19;128941;-40
2022/04/11 05:13:52;;;;;;;3.10;0.80;;;;;;;18.11;31.90;101659.28;16138245;19;130043;-39
2022/04/11 05:19:17;;;;;;;4.43;1.00;;;;;;;18.34;31.80;101666.13;16139727;19;129266;-38
2022/04/11 05:24:39;;;;;;;4.13;1.17;;;;;;;18.72;31.31;101672.66;16141181;19;128847;-38
2022/04/11 05:30:01;;;;;;;8.82;1.60;;;;;;;19.14;30.82;101664.50;16136748;19;129600;-40
2022/04/11 05:35:23;;;;;;;3.88;1.23;;;;;;;19.64;30.30;101663.47;16136034;19;129581;-39
2022/04/11 05:40:50;;;;;;;4.90;1.52;;;;;;;20.18;29.65;101657.13;16135566;19;130221;-38
2022/04/11 05:46:14;;;;;;;5.20;1.30;;;;;;;20.59;29.38;101657.28;16134612;19;129698;-39
2022/04/11 05:51:36;;;;;;;6.88;1.30;;;;;;;20.95;29.06;101644.22;16139787;19;129816;-40
2022/04/11 05:56:57;;;;;;;3.65;1.20;;;;;;;21.28;28.74;101644.63;16132476;19;131112;-38
2022/04/11 06:02:19;;;;;;;4.40;1.10;;;;;;;21.51;29.05;101641.78;16135362;19;129466;-37
2022/04/11 06:07:41;;;;;;;7.75;1.40;;;;;;;21.73;28.41;101638.28;16131718;19;130350;-43
2022/04/11 06:13:03;;;;;;;5.25;1.15;;;;;;;22.01;28.54;101649.59;16133713;19;130048;-41
2022/04/11 06:18:25;;;;;;;5.47;1.60;;;;;;;22.10;28.07;101657.31;16134573;19;130067;-39
2022/04/11 06:23:47;;;;;;;8.20;1.38;;;;;;;22.26;28.14;101657.59;16113061;19;131009;-46
2022/04/11 06:29:08;;;;;;;6.15;1.40;;;;;;;22.31;27.66;101657.66;16127986;19;129917;-44
2022/04/11 06:34:37;;;;;;;4.72;1.15;;;;;;;22.31;27.59;101666.03;16131097;19;131152;-46
2022/04/11 06:39:59;;;;;;;5.18;1.48;;;;;;;22.32;27.86;101656.56;16130216;19;130318;-40
2022/04/11 06:45:21;;;;;;;4.68;1.10;;;;;;;22.33;27.48;101658.25;16128087;19;129759;-39
2022/04/11 06:50:43;;;;;;;3.50;1.30;;;;;;;22.32;27.67;101656.56;16129347;19;130206;-40
2022/04/11 06:56:05;;;;;;;3.90;1.10;;;;;;;22.26;27.66;101646.47;16127206;19;130517;-41
2022/04/11 07:01:27;;;;;;;3.05;1.20;;;;;;;22.16;27.81;101635.09;16127640;19;129758;-39
2022/04/11 07:06:49;;;;;;;3.47;1.63;;;;;;;22.06;27.60;101641.34;16128584;19;129277;-41
2022/04/11 07:12:11;;;;;;;2.88;1.20;;;;;;;21.95;27.88;101640.31;16126119;19;130220;-41
2022/04/11 07:17:32;;;;;;;5.47;1.38;;;;;;;21.85;27.59;101637.34;16126499;19;129474;-39
2022/04/11 07:22:54;;;;;;;9.65;1.90;;;;;;;21.70;27.69;101624.00;16127107;19;129367;-40
2022/04/11 07:28:17;;;;;;;5.13;1.48;;;;;;;21.56;27.35;101632.66;16134714;19;129404;-43
2022/04/11 07:33:38;;;;;;;8.90;1.80;;;;;;;21.44;27.41;101631.84;16143342;19;131754;-39
2022/04/11 07:39:00;;;;;;;11.90;1.95;;;;;;;21.35;27.46;101621.09;16143298;19;129882;-39
2022/04/11 07:44:22;;;;;;;4.82;1.40;;;;;;;21.27;27.39;101612.31;16137221;19;130105;-38
2022/04/11 07:49:44;;;;;;;8.15;1.70;;;;;;;21.21;27.77;101600.22;16144692;19;129854;-41
2022/04/11 07:55:07;;;;;;;8.77;1.60;;;;;;;21.14;27.52;101591.16;16137918;19;129602;-39
2022/04/11 08:00:29;;;;;;;4.65;1.45;;;;;;;21.05;27.55;101593.50;16139084;19;129709;-41
2022/04/11 08:05:51;;;;;;;5.07;1.52;;;;;;;20.97;27.14;101596.66;16143409;19;129572;-44
2022/04/11 08:11:22;;;;;;;8.70;1.33;;;;;;;20.87;27.48;101589.81;16134599;19;131120;-39
2022/04/11 08:16:43;;;;;;;7.05;1.50;;;;;;;20.80;27.69;101593.81;16131525;19;129792;-41
2022/04/11 08:22:06;;;;;;;4.35;1.58;;;;;;;20.74;27.58;101592.81;16136218;19;129741;-40
2022/04/11 08:27:28;;;;;;;3.72;1.13;;;;;;;20.68;27.77;101589.09;16138566;19;129168;-41
2022/04/11 08:32:51;;;;;;;4.55;1.17;;;;;;;20.64;28.02;101587.03;16135638;19;129529;-40
2022/04/11 08:38:13;;;;;;;5.03;1.20;;;;;;;20.59;27.77;101591.38;16138801;19;129034;-39
2022/04/11 08:43:35;;;;;;;3.88;1.13;;;;;;;20.54;28.11;101580.16;16140677;19;129541;-43
2022/04/11 08:48:59;;;;;;;3.22;1.05;;;;;;;20.51;28.36;101583.44;16135921;19;130960;-40
2022/04/11 08:54:22;;;;;;;2.08;1.00;;;;;;;20.47;28.02;101570.25;16139943;19;129771;-40
2022/04/11 08:59:43;;;;;;;3.63;1.00;;;;;;;20.43;28.52;101559.63;16141551;19;128936;-40
2022/04/11 09:05:06;;;;;;;2.25;0.80;;;;;;;20.41;28.61;101545.13;16134366;19;130004;-41
2022/04/11 09:10:32;;;;;;;3.25;1.42;;;;;;;20.43;28.24;101554.06;16141085;19;129178;-38
2022/04/11 09:15:55;;;;;;;2.63;1.08;;;;;;;20.43;28.63;101548.50;16137356;19;129426;-40
2022/04/11 09:21:20;;;;;;;2.63;0.90;;;;;;;20.42;28.92;101543.22;16140621;19;129309;-38
2022/04/11 09:26:42;;;;;;;1.88;0.80;;;;;;;20.37;28.82;101526.41;16133830;19;130658;-38
2022/04/11 09:32:05;;;;;;;3.22;0.93;;;;;;;20.40;28.60;101523.16;16143480;19;129470;-38
2022/04/11 09:37:26;;;;;;;3.25;1.02;;;;;;;20.41;28.39;101516.50;16134918;19;129753;-38
2022/04/11 09:42:57;;;;;;;4.55;1.13;;;;;;;20.45;28.44;101506.56;16140631;19;129333;-39
2022/04/11 09:48:22;;;;;;;6.03;1.13;;;;;;;20.47;28.38;101509.94;16134152;19;129541;-38
2022/04/11 09:53:45;;;;;;;2.22;1.00;;;;;;;20.46;28.43;101499.91;16139376;19;130426;-38
2022/04/11 09:59:07;;;;;;;6.20;0.93;;;;;;;20.44;28.25;101497.41;16138335;19;130060;-37
2022/04/11 10:04:29;;;;;;;4.88;1.00;;;;;;;20.44;28.08;101489.06;16137652;19;129786;-38
2022/04/11 10:09:53;;;;;;;4.82;0.90;;;;;;;20.44;28.04;101474.31;16135565;19;129346;-38
2022/04/11 10:15:15;;;;;;;1.65;0.85;;;;;;;20.40;27.76;101471.19;16133507;19;130163;-38
2022/04/11 10:20:41;;;;;;;6.22;0.95;;;;;;;20.37;28.05;101466.09;16137451;19;129121;-38
2022/04/11 10:26:26;;;;;;;4.15;1.17;;;;;;;20.37;27.68;101457.75;16135921;19;129842;-37
2022/04/11 10:32:04;;;;;;;3.60;1.13;;;;;;;20.36;27.50;101444.13;16132339;19;133529;-37
2022/04/11 10:37:49;;;;;;;1.45;0.65;;;;;;;20.33;27.39;101439.06;16129150;19;129815;-37
2022/04/11 10:43:12;;;;;;;4.43;1.08;;;;;;;20.28;27.54;101432.31;16130436;19;130392;-37
2022/04/11 10:48:57;;;;;;;5.97;0.80;;;;;;;20.26;27.37;101414.19;16120549;19;129376;-38
2022/04/11 10:54:21;;;;;;;2.95;0.73;;;;;;;20.26;27.26;101415.03;16132873;19;129374;-39
2022/04/11 11:00:07;;;;;;;1.88;0.75;;;;;;;20.27;26.95;101405.63;16128639;19;129366;-39
2022/04/11 11:05:43;;;;;;;4.70;1.20;;;;;;;20.27;27.08;101393.66;16143190;19;129919;-39
2022/04/11 11:11:27;;;;;;;4.10;1.17;;;;;;;20.29;27.33;101385.91;16151771;19;130123;-38
2022/04/11 11:16:58;;;;;;;4.88;1.50;;;;;;;20.34;27.68;101377.69;16146046;19;129550;-37
2022/04/11 11:22:21;;;;;;;3.67;1.10;;;;;;;20.36;27.46;101374.66;16150535;19;131004;-38
2022/04/11 11:27:47;;;;;;;4.07;0.90;;;;;;;20.36;27.57;101374.66;16141150;19;131548;-38
2022/04/11 11:33:14;;;;;;;2.17;0.82;;;;;;;20.38;27.36;101366.94;16148328;19;130742;-37
2022/04/11 11:38:35;;;;;;;3.60;0.80;;;;;;;20.37;27.54;101366.06;16142962;19;130278;-37
2022/04/11 11:43:57;;;;;;;3.35;1.00;;;;;;;20.38;27.56;101362.19;16146376;19;130135;-38
2022/04/11 11:49:24;;;;;;;4.88;1.00;;;;;;;20.36;27.75;101344.09;16147576;19;129802;-38
2022/04/11 11:54:50;;;;;;;1.83;0.65;;;;;;;20.34;27.64;101333.25;16143911;19;131090;-38
2022/04/11 12:00:13;;;;;;;1.90;0.68;;;;;;;20.31;27.19;101325.41;16143728;19;129621;-38
2022/04/11 12:05:35;;;;;;;1.17;0.50;;;;;;;20.28;27.06;101321.19;16141102;19;130560;-37
2022/04/11 12:10:59;;;;;;;1.85;0.60;;;;;;;20.25;27.60;101316.13;16146552;19;129149;-38
2022/04/11 12:16:21;;;;;;;7.82;0.80;;;;;;;20.26;27.37;101314.16;16138519;19;129485;-38
2022/04/11 12:21:47;;;;;;;;;;;;;;;20.22;27.62;101302.72;16144307;19;129840;-38
2022/04/11 12:27:13;;;;;;;2.20;0.70;;;;;;;20.26;27.37;101303.06;16131123;19;130647;-39
2022/04/11 12:32:39;;;;;;;3.38;0.60;;;;;;;20.23;27.47;101298.84;16144248;19;129782;-38
2022/04/11 12:38:07;;;;;;;2.67;0.60;;;;;;;20.22;27.27;101286.03;16138071;19;129551;-38
2022/04/11 12:43:29;;;;;;;3.13;0.90;;;;;;;20.20;27.43;101290.16;16143938;19;130187;-38
2022/04/11 12:48:57;;;;;;;5.50;1.00;;;;;;;20.20;27.29;101290.16;16137415;19;129633;-38
2022/04/11 12:54:19;;;;;;;5.82;0.70;;;;;;;20.20;27.43;101271.56;16142500;19;129184;-37
2022/04/11 12:59:42;;;;;;;2.42;0.60;;;;;;;20.21;27.37;101272.41;16142559;19;129373;-38
2022/04/11 13:05:08;;;;;;;5.13;0.77;;;;;;;20.19;27.36;101264.31;16144386;19;129721;-37
2022/04/11 13:10:49;;;;;;;2.47;0.90;;;;;;;20.17;27.23;101247.06;16139890;19;129584;-37
2022/04/11 13:21:52;;;;;;;5.00;1.10;;;;;;;20.14;27.07;101215.06;16142443;19;129368;-37
2022/04/11 13:27:14;;;;;;;6.35;0.88;;;;;;;20.12;26.92;101208.91;16136511;19;129742;-37
2022/04/11 13:32:36;;;;;;;2.75;0.88;;;;;;;20.11;27.01;101206.38;16138767;19;130348;-37
2022/04/11 13:37:58;;;;;;;7.68;1.30;;;;;;;20.11;27.28;101200.84;16135583;19;130162;-38
2022/04/11 13:43:19;;;;;;;3.33;0.80;;;;;;;20.10;27.34;101193.59;16139396;19;129494;-37
2022/04/11 13:48:42;;;;;;;2.90;0.70;;;;;;;20.14;27.35;101189.22;16135430;19;129976;-36
2022/04/11 13:54:05;;;;;;;4.80;0.90;;;;;;;20.22;27.24;101185.22;16138486;19;128999;-36
2022/04/11 13:59:27;;;;;;;2.47;0.80;;;;;;;20.31;27.07;101166.19;16133014;19;130112;-38
2022/04/11 14:04:49;;;;;;;2.10;0.60;;;;;;;20.39;27.02;101176.88;16134825;19;128890;-37
2022/04/11 14:10:11;;;;;;;3.33;0.73;;;;;;;20.47;27.22;101153.38;16136563;19;129585;-37
2022/04/11 14:15:33;;;;;;;3.03;0.45;;;;;;;20.53;27.09;101155.13;16137112;19;129698;-38
2022/04/11 14:20:57;;;;;;;3.45;0.50;;;;;;;20.63;27.41;101130.28;16137585;19;130509;-37
2022/04/11 14:26:19;;;;;;;3.17;0.70;;;;;;;20.70;27.15;101124.53;16135395;19;129381;-38
2022/04/11 14:31:41;;;;;;;3.10;0.60;;;;;;;20.74;27.01;101123.75;16132457;19;131195;-37
2022/04/11 14:37:03;;;;;;;4.28;0.85;;;;;;;20.79;27.15;101108.28;16134903;19;130493;-37
2022/04/11 14:42:25;;;;;;;5.30;0.70;;;;;;;20.83;27.01;101113.06;16149731;19;130822;-38
2022/04/11 14:47:46;;;;;;;3.35;0.68;;;;;;;20.88;27.18;101103.97;16135701;19;129513;-37
2022/04/11 14:53:10;;;;;;;4.75;0.60;;;;;;;20.92;27.34;101102.34;16151162;19;129469;-37
2022/04/11 14:58:37;;;;;;;4.00;0.68;;;;;;;20.97;27.31;101079.34;16148723;19;129730;-37
2022/04/11 15:04:00;;;;;;;4.82;0.70;;;;;;;21.01;27.34;101058.25;16149641;19;129401;-37
2022/04/11 15:09:22;;;;;;;5.28;0.77;;;;;;;21.05;27.54;101053.84;16149569;19;129466;-38
2022/04/11 15:14:44;;;;;;;6.25;0.50;;;;;;;21.09;27.51;101049.44;16149913;19;132476;-39
2022/04/11 15:20:09;;;;;;;0.88;0.47;;;;;;;21.14;27.76;101035.59;16147473;19;129583;-37
2022/04/11 15:25:30;;;;;;;2.25;0.50;;;;;;;21.17;27.50;101023.94;16146655;19;129510;-37
2022/04/11 15:30:52;;;;;;;4.28;0.75;;;;;;;21.19;27.46;101027.28;16146088;19;129509;-38
2022/04/11 15:36:14;;;;;;;4.35;0.57;;;;;;;21.21;27.38;101029.84;16144699;19;128981;-38
2022/04/11 15:41:36;;;;;;;3.47;0.70;;;;;;;21.23;27.19;101027.63;16147031;19;130439;-37
2022/04/11 15:46:58;;;;;;;1.98;0.77;;;;;;;21.25;27.52;101027.38;16142225;19;129854;-38
2022/04/11 15:52:20;;;;;;;1.17;0.68;;;;;;;21.21;27.15;101024.28;16147250;19;129345;-37
2022/04/11 15:57:44;;;;;;;4.50;1.00;;;;;;;21.20;27.50;101023.41;16144749;19;129737;-38
2022/04/11 16:03:06;;;;;;;5.57;1.20;;;;;;;21.18;27.31;101008.91;16144029;19;131600;-38
2022/04/11 16:08:28;;;;;;;6.40;1.13;;;;;;;21.17;27.54;101007.25;16145257;19;128908;-38
2022/04/11 16:13:50;;;;;;;2.72;1.20;;;;;;;21.21;27.65;101004.78;16144427;19;130338;-39
2022/04/11 16:19:11;;;;;;;4.43;1.42;;;;;;;21.26;27.76;101009.56;16139237;19;129216;-38
2022/04/11 16:24:33;;;;;;;2.72;1.30;;;;;;;21.33;27.67;100993.50;16140563;19;129811;-37
2022/04/11 16:29:55;;;;;;;4.60;1.15;;;;;;;21.40;27.76;101002.47;16144862;19;130268;-38
2022/04/11 16:35:18;;;;;;;2.78;1.23;;;;;;;21.43;27.60;101001.94;16137134;19;130092;-38
2022/04/11 16:40:44;;;;;;;5.90;1.42;;;;;;;21.43;27.83;101001.94;16135806;19;130551;-38
2022/04/11 16:46:09;;;;;;;9.82;1.50;;;;;;;21.46;27.93;101006.97;16138958;19;129157;-38
2022/04/11 16:51:31;;;;;;;11.23;1.23;;;;;;;21.45;28.15;101008.09;16142440;19;129763;-37
2022/04/11 16:56:52;;;;;;;5.80;1.33;;;;;;;21.43;28.01;101009.47;16138588;19;129627;-37
2022/04/11 17:02:15;;;;;;;5.43;1.33;;;;;;;21.40;28.32;101013.63;16141244;19;131574;-38
2022/04/11 17:07:37;;;;;;;2.33;1.45;;;;;;;21.33;28.40;100999.91;16142199;19;129783;-36
2022/04/11 17:12:59;;;;;;;2.45;1.00;;;;;;;21.28;28.33;101007.38;16143327;19;131620;-38
2022/04/11 17:18:33;;;;;;;6.97;1.40;;;;;;;21.20;28.19;101003.94;16137145;19;128876;-38
2022/04/11 17:23:55;;;;;;;9.98;1.48;;;;;;;21.17;28.51;101007.25;16141408;19;129376;-38
2022/04/11 17:29:17;;;;;;;6.72;1.50;;;;;;;21.13;28.61;101002.47;16142403;19;129028;-38
2022/04/11 17:34:39;;;;;;;5.00;1.10;;;;;;;21.08;28.71;101008.00;16138471;19;129846;-37
2022/04/11 17:40:00;;;;;;;7.18;1.60;;;;;;;21.03;28.32;101009.59;16134049;19;130234;-37
2022/04/11 17:45:22;;;;;;;6.47;1.23;;;;;;;21.03;28.87;101011.56;16137754;19;129782;-37
2022/04/11 17:50:45;;;;;;;7.10;1.08;;;;;;;21.06;28.62;101017.44;16139713;19;130175;-37
2022/04/11 17:56:08;;;;;;;2.58;0.98;;;;;;;21.10;28.88;101022.47;16139616;19;129337;-37
2022/04/11 18:01:31;;;;;;;7.03;1.20;;;;;;;21.14;28.62;101018.91;16138292;19;129208;-37
2022/04/11 18:06:53;;;;;;;1.92;0.80;;;;;;;21.16;29.19;101029.75;16140598;19;130143;-38
2022/04/11 18:12:15;;;;;;;4.28;0.85;;;;;;;21.17;29.33;101032.28;16135380;19;129227;-38
2022/04/11 18:17:37;;;;;;;9.05;1.00;;;;;;;21.17;29.16;101028.66;16135046;19;129194;-38
2022/04/11 18:23:00;;;;;;;11.55;1.33;;;;;;;21.17;29.28;101034.22;16134474;19;130300;-38
2022/04/11 18:34:04;;;;;;;4.10;1.05;;;;;;;21.28;28.85;101040.75;16136993;19;130443;-38
2022/04/11 18:39:26;;;;;;;7.13;1.08;;;;;;;21.36;28.90;101037.50;16130716;19;129872;-37
2022/04/11 18:44:48;;;;;;;8.30;1.25;;;;;;;21.44;29.11;101044.53;16135770;19;130479;-37
2022/04/11 18:50:10;;;;;;;4.88;0.88;;;;;;;21.50;28.84;101029.59;16132970;19;128999;-38
2022/04/11 18:55:32;;;;;;;5.75;0.93;;;;;;;21.57;29.15;101026.59;16135882;19;129270;-38
2022/04/11 19:00:54;;;;;;;6.57;0.90;;;;;;;21.60;29.00;101028.84;16136718;19;129520;-38
2022/04/11 19:06:17;;;;;;;18.88;1.75;;;;;;;21.64;29.16;101021.66;16133463;19;130356;-38
2022/04/11 19:11:39;;;;;;;5.68;1.20;;;;;;;21.69;29.56;101024.47;16132580;19;129559;-38
2022/04/11 19:17:01;;;;;;;5.55;1.15;;;;;;;21.72;29.59;101014.78;16133037;19;129827;-38
2022/04/11 19:22:23;;;;;;;3.42;1.20;;;;;;;21.77;29.70;101021.22;16136200;19;129403;-38
2022/04/11 19:27:55;;;;;;;5.90;1.08;;;;;;;21.82;29.65;101012.06;16149959;19;129919;-38
2022/04/11 19:33:17;;;;;;;5.80;1.45;;;;;;;21.87;29.26;101008.47;16148800;19;129466;-37
2022/04/11 19:38:40;;;;;;;4.45;0.90;;;;;;;21.88;29.32;101018.50;16147241;19;129317;-38
2022/04/11 19:44:02;;;;;;;7.53;1.02;;;;;;;21.94;29.35;101020.22;16149566;19;129223;-38
2022/04/11 19:55:05;;;;;;;8.43;0.88;;;;;;;22.01;29.29;101025.56;16147420;19;129627;-37
2022/04/11 20:00:27;;;;;;;2.47;0.70;;;;;;;22.02;28.97;101011.38;16142861;19;129350;-37
2022/04/11 20:05:48;;;;;;;4.03;0.88;;;;;;;22.06;29.26;101018.09;16146839;19;129689;-38
2022/04/11 20:11:11;;;;;;;6.03;1.10;;;;;;;22.10;29.17;101013.66;16146244;19;129349;-38
2022/04/11 20:16:33;;;;;;;7.13;1.00;;;;;;;22.12;29.45;101003.09;16146836;19;129373;-38
2022/04/11 20:21:55;;;;;;;8.85;1.38;;;;;;;22.14;29.47;101002.81;16137434;19;129310;-37
2022/04/11 20:27:18;;;;;;;4.38;1.00;;;;;;;22.16;29.18;101000.59;16142946;19;130795;-37
2022/04/11 20:32:40;;;;;;;6.05;1.10;;;;;;;22.18;29.32;101003.97;16140638;19;129206;-38
2022/04/11 20:38:02;;;;;;;9.18;1.08;;;;;;;22.21;29.49;100999.81;16136245;19;129515;-38
2022/04/11 20:43:24;;;;;;;5.35;1.08;;;;;;;22.19;29.59;100988.06;16140471;19;130378;-38
2022/04/11 20:48:46;;;;;;;6.43;0.85;;;;;;;22.14;29.52;100983.31;16132872;19;129553;-38
2022/04/11 20:55:39;;;;;;;7.57;1.10;;;;;;;22.04;29.57;100981.28;16139731;19;130247;-37
2022/04/11 20:59:52;;;;;;;8.70;1.40;;;;;;;21.91;29.04;100977.03;16132797;19;132328;-38
2022/04/11 21:05:14;;;;;;;12.07;1.60;;;;;;;21.75;29.60;100973.31;16136396;19;129701;-39
2022/04/11 21:10:36;;;;;;;5.55;1.17;;;;;;;21.63;29.35;100975.44;16129502;19;130341;-40
2022/04/11 21:15:59;;;;;;;5.18;1.10;;;;;;;21.51;29.55;100973.66;16138929;19;131038;-39
2022/04/11 21:21:20;;;;;;;2.05;0.90;;;;;;;21.41;29.48;100978.25;16134230;19;129550;-39
2022/04/11 21:26:42;;;;;;;4.93;0.90;;;;;;;21.31;29.70;100979.00;16136887;19;130274;-39
2022/04/11 21:32:07;;;;;;;5.13;0.80;;;;;;;21.21;29.73;100963.06;16139159;19;129600;-39
2022/04/11 21:37:29;;;;;;;2.30;0.80;;;;;;;21.13;29.72;100964.38;16137544;19;129944;-38
2022/04/11 21:42:50;;;;;;;4.65;1.08;;;;;;;21.05;29.44;100953.69;16139143;19;131100;-38
2022/04/11 21:48:12;;;;;;;2.30;0.70;;;;;;;20.96;29.44;100950.56;16134436;19;129791;-39
2022/04/11 21:53:34;;;;;;;3.45;1.02;;;;;;;20.89;29.47;100939.66;16138825;19;129023;-39
2022/04/11 21:58:59;;;;;;;3.20;0.75;;;;;;;20.83;29.73;100945.41;16133417;19;130362;-39
2022/04/11 22:04:20;;;;;;;2.63;0.80;;;;;;;20.78;29.50;100937.00;16136242;19;129151;-40
2022/04/11 22:09:42;;;;;;;1.95;0.80;;;;;;;20.74;29.48;100942.22;16138575;19;129523;-39
2022/04/11 22:15:05;;;;;;;2.53;0.60;;;;;;;20.71;29.63;100951.94;16138482;19;129525;-39
2022/04/11 22:20:27;;;;;;;2.58;0.68;;;;;;;20.67;29.83;100949.94;16132226;19;129406;-39
2022/04/11 22:25:48;;;;;;;0.95;0.63;;;;;;;20.63;29.36;100951.53;16135010;19;130372;-39
2022/04/11 22:31:10;;;;;;;3.72;0.55;;;;;;;20.60;29.85;100948.19;16132137;19;130291;-40
2022/04/11 22:36:33;;;;;;;0.57;0.50;;;;;;;20.55;29.64;100942.56;16132387;19;129829;-38
2022/04/11 22:41:55;;;;;;;1.10;0.60;;;;;;;20.52;29.45;100951.44;16129731;19;130065;-39
2022/04/11 22:47:17;;;;;;;1.30;0.63;;;;;;;20.49;29.52;100946.38;16127406;19;130376;-40
2022/04/11 22:52:40;;;;;;;0.60;0.52;;;;;;;20.47;29.66;100936.63;16131533;19;129271;-39
2022/04/11 22:58:01;;;;;;;1.40;0.70;;;;;;;20.42;29.38;100929.91;16132007;19;129092;-39
2022/04/11 23:03:23;;;;;;;1.30;0.52;;;;;;;20.39;29.56;100929.56;16141500;19;130396;-40
2022/04/11 23:08:45;;;;;;;2.88;0.70;;;;;;;20.36;29.65;100928.16;16148746;19;129034;-39
2022/04/11 23:14:08;;;;;;;0.88;0.60;;;;;;;20.32;29.67;100932.53;16149188;19;130821;-39
2022/04/11 23:19:29;;;;;;;0.73;0.50;;;;;;;20.29;29.75;100931.13;16146005;19;130075;-38
2022/04/11 23:24:51;;;;;;;1.48;0.70;;;;;;;20.27;29.83;100919.44;16145026;19;131211;-39
2022/04/11 23:30:16;;;;;;;1.35;0.50;;;;;;;20.24;29.48;100906.06;16148836;19;129012;-41
2022/04/11 23:35:39;;;;;;;1.02;0.60;;;;;;;20.21;29.72;100902.97;16145808;19;129609;-40
2022/04/11 23:41:01;;;;;;;0.95;0.50;;;;;;;20.18;29.75;100901.53;16138537;19;130687;-39
2022/04/11 23:46:23;;;;;;;2.63;0.50;;;;;;;20.15;29.90;100893.72;16139355;19;130344;-39
2022/04/11 23:51:45;;;;;;;3.30;0.55;;;;;;;20.12;29.47;100899.78;16143667;19;129808;-38
2022/04/11 23:57:06;;;;;;;2.78;0.50;;;;;;;20.10;29.94;100902.81;16147254;19;129718;-39
